sensor_id;sensor_type;location;lat;lon;timestamp;pressure;altitude;pressure_sealevel;temperature;humidity
51289;BME280;37372;52.294;5.152;2022-12-15T00:01:35;100689.94;;;-5.07;100.00
51289;BME280;37372;52.294;5.152;2022-12-15T00:04:19;100692.66;;;-5.07;100.00
51289;BME280;37372;52.294;5.152;2022-12-15T00:07:03;100687.84;;;-5.02;100.00
51289;BME280;37372;52.294;5.152;2022-12-15T00:09:47;100693.53;;;-4.98;100.00
51289;BME280;37372;52.294;5.152;2022-12-15T00:12:31;100688.06;;;-4.98;100.00
51289;BME280;37372;52.294;5.152;2022-12-15T00:15:15;100690.66;;;-4.93;100.00
51289;BME280;37372;52.294;5.152;2022-12-15T00:18:04;100689.53;;;-4.92;100.00
51289;BME280;37372;52.294;5.152;2022-12-15T00:20:48;100686.47;;;-4.90;100.00
51289;BME280;37372;52.294;5.152;2022-12-15T00:23:32;100694.34;;;-4.89;100.00
51289;BME280;37372;52.294;5.152;2022-12-15T00:26:16;100700.16;;;-4.90;100.00
51289;BME280;37372;52.294;5.152;2022-12-15T00:29:00;100700.31;;;-4.87;100.00
51289;BME280;37372;52.294;5.152;2022-12-15T00:31:44;100711.91;;;-4.90;100.00
51289;BME280;37372;52.294;5.152;2022-12-15T00:34:28;100700.47;;;-4.92;100.00
51289;BME280;37372;52.294;5.152;2022-12-15T00:37:12;100704.00;;;-4.91;100.00
51289;BME280;37372;52.294;5.152;2022-12-15T00:39:56;100714.41;;;-5.02;100.00
51289;BME280;37372;52.294;5.152;2022-12-15T00:42:28;100706.47;;;-5.12;100.00
51289;BME280;37372;52.294;5.152;2022-12-15T00:44:54;100715.47;;;-5.12;100.00
51289;BME280;37372;52.294;5.152;2022-12-15T00:47:20;100711.94;;;-5.12;100.00
51289;BME280;37372;52.294;5.152;2022-12-15T00:49:45;100705.69;;;-5.04;100.00
51289;BME280;37372;52.294;5.152;2022-12-15T00:52:29;100712.00;;;-5.04;100.00
51289;BME280;37372;52.294;5.152;2022-12-15T00:55:13;100714.78;;;-4.95;100.00
51289;BME280;37372;52.294;5.152;2022-12-15T00:57:57;100713.19;;;-4.96;100.00
51289;BME280;37372;52.294;5.152;2022-12-15T01:00:41;100717.81;;;-4.96;100.00
51289;BME280;37372;52.294;5.152;2022-12-15T01:03:25;100719.59;;;-5.00;100.00
51289;BME280;37372;52.294;5.152;2022-12-15T01:06:15;100711.19;;;-5.04;100.00
51289;BME280;37372;52.294;5.152;2022-12-15T01:09:00;100715.22;;;-5.02;100.00
51289;BME280;37372;52.294;5.152;2022-12-15T01:11:44;100713.59;;;-5.03;100.00
51289;BME280;37372;52.294;5.152;2022-12-15T01:14:28;100715.03;;;-5.05;100.00
51289;BME280;37372;52.294;5.152;2022-12-15T01:17:13;100721.84;;;-4.94;100.00
51289;BME280;37372;52.294;5.152;2022-12-15T01:19:57;100714.16;;;-4.92;100.00
51289;BME280;37372;52.294;5.152;2022-12-15T01:22:39;100706.59;;;-4.86;100.00
51289;BME280;37372;52.294;5.152;2022-12-15T01:25:06;100727.56;;;-4.82;100.00
51289;BME280;37372;52.294;5.152;2022-12-15T01:27:31;100723.38;;;-4.79;100.00
51289;BME280;37372;52.294;5.152;2022-12-15T01:29:57;100734.53;;;-4.75;100.00
51289;BME280;37372;52.294;5.152;2022-12-15T01:32:22;100725.81;;;-4.77;100.00
51289;BME280;37372;52.294;5.152;2022-12-15T01:34:48;100731.94;;;-4.81;100.00
51289;BME280;37372;52.294;5.152;2022-12-15T01:37:13;100735.75;;;-4.82;100.00
51289;BME280;37372;52.294;5.152;2022-12-15T01:39:38;100740.75;;;-4.84;100.00
51289;BME280;37372;52.294;5.152;2022-12-15T01:42:22;100743.75;;;-4.94;100.00
51289;BME280;37372;52.294;5.152;2022-12-15T01:44:50;100745.63;;;-5.03;100.00
51289;BME280;37372;52.294;5.152;2022-12-15T01:47:16;100748.88;;;-5.01;100.00
51289;BME280;37372;52.294;5.152;2022-12-15T01:49:42;100746.28;;;-5.06;100.00
51289;BME280;37372;52.294;5.152;2022-12-15T01:52:12;100745.25;;;-5.10;100.00
51289;BME280;37372;52.294;5.152;2022-12-15T01:54:53;100749.94;;;-5.11;100.00
51289;BME280;37372;52.294;5.152;2022-12-15T01:57:24;100748.13;;;-5.15;100.00
51289;BME280;37372;52.294;5.152;2022-12-15T01:59:54;100742.66;;;-5.15;100.00
51289;BME280;37372;52.294;5.152;2022-12-15T02:02:24;100751.38;;;-5.13;100.00
51289;BME280;37372;52.294;5.152;2022-12-15T02:04:51;100755.56;;;-5.07;100.00
51289;BME280;37372;52.294;5.152;2022-12-15T02:07:18;100753.50;;;-5.02;100.00
51289;BME280;37372;52.294;5.152;2022-12-15T02:09:45;100746.75;;;-5.04;100.00
51289;BME280;37372;52.294;5.152;2022-12-15T02:12:33;100750.22;;;-5.12;100.00
51289;BME280;37372;52.294;5.152;2022-12-15T02:17:48;100768.03;;;-5.24;100.00
51289;BME280;37372;52.294;5.152;2022-12-15T02:20:32;100768.19;;;-5.20;100.00
51289;BME280;37372;52.294;5.152;2022-12-15T02:23:19;100772.25;;;-5.17;100.00
51289;BME280;37372;52.294;5.152;2022-12-15T02:26:12;100777.47;;;-5.07;100.00
51289;BME280;37372;52.294;5.152;2022-12-15T02:28:59;100772.41;;;-4.91;100.00
51289;BME280;37372;52.294;5.152;2022-12-15T02:31:37;100764.56;;;-4.84;100.00
51289;BME280;37372;52.294;5.152;2022-12-15T02:36:59;100767.28;;;-4.53;100.00
51289;BME280;37372;52.294;5.152;2022-12-15T02:39:25;100764.91;;;-4.46;100.00
51289;BME280;37372;52.294;5.152;2022-12-15T02:41:51;100768.00;;;-4.39;100.00
51289;BME280;37372;52.294;5.152;2022-12-15T02:47:21;100765.63;;;-4.31;100.00
51289;BME280;37372;52.294;5.152;2022-12-15T02:55:50;100765.91;;;-4.42;100.00
51289;BME280;37372;52.294;5.152;2022-12-15T02:58:47;100765.91;;;-4.42;100.00
51289;BME280;37372;52.294;5.152;2022-12-15T03:01:45;100767.16;;;-4.48;100.00
51289;BME280;37372;52.294;5.152;2022-12-15T03:04:15;100767.78;;;-4.51;100.00
51289;BME280;37372;52.294;5.152;2022-12-15T03:06:41;100762.94;;;-4.63;100.00
51289;BME280;37372;52.294;5.152;2022-12-15T03:09:06;100775.63;;;-4.67;100.00
51289;BME280;37372;52.294;5.152;2022-12-15T03:11:32;100782.34;;;-4.73;100.00
51289;BME280;37372;52.294;5.152;2022-12-15T03:13:58;100781.19;;;-4.81;100.00
51289;BME280;37372;52.294;5.152;2022-12-15T03:16:23;100777.75;;;-4.86;100.00
51289;BME280;37372;52.294;5.152;2022-12-15T03:18:50;100778.56;;;-4.86;100.00
51289;BME280;37372;52.294;5.152;2022-12-15T03:21:15;100783.41;;;-4.83;100.00
51289;BME280;37372;52.294;5.152;2022-12-15T03:23:41;100788.56;;;-4.81;100.00
51289;BME280;37372;52.294;5.152;2022-12-15T03:26:06;100786.91;;;-4.91;100.00
51289;BME280;37372;52.294;5.152;2022-12-15T03:28:32;100786.31;;;-4.79;100.00
51289;BME280;37372;52.294;5.152;2022-12-15T03:30:58;100780.19;;;-4.85;100.00
51289;BME280;37372;52.294;5.152;2022-12-15T03:33:23;100785.66;;;-4.85;100.00
51289;BME280;37372;52.294;5.152;2022-12-15T03:35:49;100781.78;;;-4.84;100.00
51289;BME280;37372;52.294;5.152;2022-12-15T03:38:15;100787.72;;;-4.90;100.00
51289;BME280;37372;52.294;5.152;2022-12-15T03:40:41;100785.91;;;-4.95;100.00
51289;BME280;37372;52.294;5.152;2022-12-15T03:43:06;100787.84;;;-4.95;100.00
51289;BME280;37372;52.294;5.152;2022-12-15T03:45:31;100796.84;;;-4.95;100.00
51289;BME280;37372;52.294;5.152;2022-12-15T03:47:57;100792.72;;;-4.84;100.00
51289;BME280;37372;52.294;5.152;2022-12-15T03:50:24;100792.59;;;-4.78;100.00
51289;BME280;37372;52.294;5.152;2022-12-15T03:52:52;100795.72;;;-4.71;100.00
51289;BME280;37372;52.294;5.152;2022-12-15T03:55:18;100804.78;;;-4.62;100.00
51289;BME280;37372;52.294;5.152;2022-12-15T03:57:43;100805.88;;;-4.63;100.00
51289;BME280;37372;52.294;5.152;2022-12-15T04:00:11;100795.81;;;-4.54;100.00
51289;BME280;37372;52.294;5.152;2022-12-15T04:02:39;100801.16;;;-4.49;100.00
51289;BME280;37372;52.294;5.152;2022-12-15T04:05:06;100794.53;;;-4.48;100.00
51289;BME280;37372;52.294;5.152;2022-12-15T04:07:31;100791.19;;;-4.45;100.00
51289;BME280;37372;52.294;5.152;2022-12-15T04:09:56;100784.84;;;-4.54;100.00
51289;BME280;37372;52.294;5.152;2022-12-15T04:12:22;100782.63;;;-4.52;100.00
51289;BME280;37372;52.294;5.152;2022-12-15T04:14:47;100784.19;;;-4.60;100.00
51289;BME280;37372;52.294;5.152;2022-12-15T04:17:13;100785.50;;;-4.57;100.00
51289;BME280;37372;52.294;5.152;2022-12-15T04:19:38;100791.22;;;-4.67;100.00
51289;BME280;37372;52.294;5.152;2022-12-15T04:22:22;100782.88;;;-4.62;100.00
51289;BME280;37372;52.294;5.152;2022-12-15T04:24:48;100788.16;;;-4.66;100.00
51289;BME280;37372;52.294;5.152;2022-12-15T04:27:32;100790.22;;;-4.71;100.00
51289;BME280;37372;52.294;5.152;2022-12-15T04:30:16;100794.09;;;-4.72;100.00
51289;BME280;37372;52.294;5.152;2022-12-15T04:33:01;100790.22;;;-4.71;100.00
51289;BME280;37372;52.294;5.152;2022-12-15T04:35:46;100800.22;;;-4.75;100.00
51289;BME280;37372;52.294;5.152;2022-12-15T04:38:30;100799.13;;;-4.66;100.00
51289;BME280;37372;52.294;5.152;2022-12-15T04:41:15;100797.50;;;-4.67;100.00
51289;BME280;37372;52.294;5.152;2022-12-15T04:44:00;100805.22;;;-4.69;100.00
51289;BME280;37372;52.294;5.152;2022-12-15T04:46:44;100805.69;;;-4.75;100.00
51289;BME280;37372;52.294;5.152;2022-12-15T04:49:28;100800.69;;;-4.73;100.00
51289;BME280;37372;52.294;5.152;2022-12-15T04:52:12;100803.13;;;-4.72;100.00
51289;BME280;37372;52.294;5.152;2022-12-15T04:54:56;100802.81;;;-4.70;100.00
51289;BME280;37372;52.294;5.152;2022-12-15T04:57:40;100805.06;;;-4.72;100.00
51289;BME280;37372;52.294;5.152;2022-12-15T05:00:24;100813.91;;;-4.75;100.00
51289;BME280;37372;52.294;5.152;2022-12-15T05:03:08;100807.69;;;-4.90;100.00
51289;BME280;37372;52.294;5.152;2022-12-15T05:05:52;100804.25;;;-4.95;100.00
51289;BME280;37372;52.294;5.152;2022-12-15T05:08:36;100809.06;;;-5.01;100.00
51289;BME280;37372;52.294;5.152;2022-12-15T05:11:20;100805.19;;;-5.00;100.00
51289;BME280;37372;52.294;5.152;2022-12-15T05:14:04;100811.84;;;-4.92;100.00
51289;BME280;37372;52.294;5.152;2022-12-15T05:16:48;100808.81;;;-4.91;100.00
51289;BME280;37372;52.294;5.152;2022-12-15T05:19:32;100804.75;;;-4.93;100.00
51289;BME280;37372;52.294;5.152;2022-12-15T05:22:16;100811.47;;;-4.99;100.00
51289;BME280;37372;52.294;5.152;2022-12-15T05:25:00;100815.00;;;-4.99;100.00
51289;BME280;37372;52.294;5.152;2022-12-15T05:27:43;100817.28;;;-5.01;100.00
51289;BME280;37372;52.294;5.152;2022-12-15T05:30:28;100817.16;;;-4.96;100.00
51289;BME280;37372;52.294;5.152;2022-12-15T05:33:13;100817.38;;;-4.84;100.00
51289;BME280;37372;52.294;5.152;2022-12-15T05:35:38;100822.53;;;-4.82;100.00
51289;BME280;37372;52.294;5.152;2022-12-15T05:38:04;100823.28;;;-4.90;100.00
51289;BME280;37372;52.294;5.152;2022-12-15T05:40:30;100824.22;;;-4.95;100.00
51289;BME280;37372;52.294;5.152;2022-12-15T05:42:59;100818.13;;;-4.92;100.00
51289;BME280;37372;52.294;5.152;2022-12-15T05:45:25;100814.28;;;-4.91;100.00
51289;BME280;37372;52.294;5.152;2022-12-15T05:47:51;100812.72;;;-4.83;100.00
51289;BME280;37372;52.294;5.152;2022-12-15T05:50:16;100815.19;;;-4.73;100.00
51289;BME280;37372;52.294;5.152;2022-12-15T05:52:42;100827.38;;;-4.79;100.00
51289;BME280;37372;52.294;5.152;2022-12-15T05:55:07;100825.41;;;-4.87;100.00
51289;BME280;37372;52.294;5.152;2022-12-15T05:57:33;100824.84;;;-4.98;100.00
51289;BME280;37372;52.294;5.152;2022-12-15T05:59:58;100826.69;;;-5.07;100.00
51289;BME280;37372;52.294;5.152;2022-12-15T06:02:23;100827.94;;;-5.13;100.00
51289;BME280;37372;52.294;5.152;2022-12-15T06:04:48;100833.53;;;-5.18;100.00
51289;BME280;37372;52.294;5.152;2022-12-15T06:07:14;100817.13;;;-5.18;100.00
51289;BME280;37372;52.294;5.152;2022-12-15T06:09:39;100821.97;;;-5.15;100.00
51289;BME280;37372;52.294;5.152;2022-12-15T06:12:04;100816.50;;;-5.15;100.00
51289;BME280;37372;52.294;5.152;2022-12-15T06:14:30;100824.28;;;-5.09;100.00
51289;BME280;37372;52.294;5.152;2022-12-15T06:16:55;100838.53;;;-4.98;100.00
51289;BME280;37372;52.294;5.152;2022-12-15T06:19:21;100838.66;;;-5.03;100.00
51289;BME280;37372;52.294;5.152;2022-12-15T06:21:46;100843.50;;;-5.00;100.00
51289;BME280;37372;52.294;5.152;2022-12-15T06:24:12;100838.19;;;-4.96;100.00
51289;BME280;37372;52.294;5.152;2022-12-15T06:26:38;100834.53;;;-4.92;100.00
51289;BME280;37372;52.294;5.152;2022-12-15T06:29:06;100856.66;;;-5.02;100.00
51289;BME280;37372;52.294;5.152;2022-12-15T06:31:34;100847.78;;;-5.08;100.00
51289;BME280;37372;52.294;5.152;2022-12-15T06:34:02;100859.13;;;-5.14;100.00
51289;BME280;37372;52.294;5.152;2022-12-15T06:36:28;100863.13;;;-5.20;100.00
51289;BME280;37372;52.294;5.152;2022-12-15T06:39:00;100857.28;;;-5.05;100.00
51289;BME280;37372;52.294;5.152;2022-12-15T06:41:26;100858.53;;;-4.89;100.00
51289;BME280;37372;52.294;5.152;2022-12-15T06:43:54;100863.88;;;-4.84;100.00
51289;BME280;37372;52.294;5.152;2022-12-15T06:46:23;100855.19;;;-4.86;100.00
51289;BME280;37372;52.294;5.152;2022-12-15T06:48:49;100861.47;;;-4.85;100.00
51289;BME280;37372;52.294;5.152;2022-12-15T06:51:15;100862.91;;;-4.88;100.00
51289;BME280;37372;52.294;5.152;2022-12-15T06:53:41;100861.66;;;-4.82;100.00
51289;BME280;37372;52.294;5.152;2022-12-15T06:56:16;100859.03;;;-4.87;100.00
51289;BME280;37372;52.294;5.152;2022-12-15T06:58:42;100860.16;;;-4.88;100.00
51289;BME280;37372;52.294;5.152;2022-12-15T07:01:08;100862.69;;;-4.91;100.00
51289;BME280;37372;52.294;5.152;2022-12-15T07:03:34;100867.59;;;-5.02;100.00
51289;BME280;37372;52.294;5.152;2022-12-15T07:06:02;100870.97;;;-5.05;100.00
51289;BME280;37372;52.294;5.152;2022-12-15T07:08:27;100875.44;;;-5.09;100.00
51289;BME280;37372;52.294;5.152;2022-12-15T07:10:53;100867.22;;;-5.09;100.00
51289;BME280;37372;52.294;5.152;2022-12-15T07:13:18;100871.47;;;-5.03;100.00
51289;BME280;37372;52.294;5.152;2022-12-15T07:15:43;100874.22;;;-5.03;100.00
51289;BME280;37372;52.294;5.152;2022-12-15T07:18:09;100879.06;;;-5.00;100.00
51289;BME280;37372;52.294;5.152;2022-12-15T07:20:35;100870.06;;;-5.00;100.00
51289;BME280;37372;52.294;5.152;2022-12-15T07:23:00;100862.53;;;-4.95;100.00
51289;BME280;37372;52.294;5.152;2022-12-15T07:25:31;100857.44;;;-4.88;100.00
51289;BME280;37372;52.294;5.152;2022-12-15T07:27:57;100863.41;;;-4.86;100.00
51289;BME280;37372;52.294;5.152;2022-12-15T07:30:22;100870.38;;;-4.80;100.00
51289;BME280;37372;52.294;5.152;2022-12-15T07:32:48;100874.09;;;-4.75;100.00
51289;BME280;37372;52.294;5.152;2022-12-15T07:35:13;100870.09;;;-4.69;100.00
51289;BME280;37372;52.294;5.152;2022-12-15T07:37:39;100874.56;;;-4.51;100.00
51289;BME280;37372;52.294;5.152;2022-12-15T07:40:05;100864.13;;;-4.49;100.00
51289;BME280;37372;52.294;5.152;2022-12-15T07:42:32;100870.28;;;-4.43;100.00
51289;BME280;37372;52.294;5.152;2022-12-15T07:44:57;100874.94;;;-4.44;100.00
51289;BME280;37372;52.294;5.152;2022-12-15T07:47:23;100872.75;;;-4.33;100.00
51289;BME280;37372;52.294;5.152;2022-12-15T07:49:48;100878.53;;;-4.34;100.00
51289;BME280;37372;52.294;5.152;2022-12-15T07:52:14;100881.09;;;-4.38;100.00
51289;BME280;37372;52.294;5.152;2022-12-15T07:54:39;100882.53;;;-4.41;100.00
51289;BME280;37372;52.294;5.152;2022-12-15T07:57:05;100879.13;;;-4.46;100.00
51289;BME280;37372;52.294;5.152;2022-12-15T07:59:33;100896.97;;;-4.49;100.00
51289;BME280;37372;52.294;5.152;2022-12-15T08:01:59;100892.44;;;-4.53;100.00
51289;BME280;37372;52.294;5.152;2022-12-15T08:04:26;100893.69;;;-4.60;100.00
51289;BME280;37372;52.294;5.152;2022-12-15T08:06:54;100887.28;;;-4.55;100.00
51289;BME280;37372;52.294;5.152;2022-12-15T08:09:20;100888.25;;;-4.51;100.00
51289;BME280;37372;52.294;5.152;2022-12-15T08:11:45;100887.13;;;-4.27;100.00
51289;BME280;37372;52.294;5.152;2022-12-15T08:14:10;100895.56;;;-4.15;100.00
51289;BME280;37372;52.294;5.152;2022-12-15T08:16:36;100892.69;;;-4.10;100.00
51289;BME280;37372;52.294;5.152;2022-12-15T08:19:03;100883.72;;;-4.02;100.00
51289;BME280;37372;52.294;5.152;2022-12-15T08:21:30;100894.03;;;-3.99;100.00
51289;BME280;37372;52.294;5.152;2022-12-15T08:23:56;100902.13;;;-3.94;100.00
51289;BME280;37372;52.294;5.152;2022-12-15T08:26:22;100900.47;;;-3.95;100.00
51289;BME280;37372;52.294;5.152;2022-12-15T08:28:48;100906.97;;;-3.90;100.00
51289;BME280;37372;52.294;5.152;2022-12-15T08:31:19;100899.59;;;-3.81;100.00
51289;BME280;37372;52.294;5.152;2022-12-15T08:33:45;100900.56;;;-3.77;100.00
51289;BME280;37372;52.294;5.152;2022-12-15T08:36:13;100905.09;;;-3.73;100.00
51289;BME280;37372;52.294;5.152;2022-12-15T08:38:39;100911.09;;;-3.62;100.00
51289;BME280;37372;52.294;5.152;2022-12-15T08:41:11;100909.34;;;-3.58;100.00
51289;BME280;37372;52.294;5.152;2022-12-15T08:43:37;100900.16;;;-3.53;100.00
51289;BME280;37372;52.294;5.152;2022-12-15T08:46:03;100915.81;;;-3.45;100.00
51289;BME280;37372;52.294;5.152;2022-12-15T08:48:29;100920.72;;;-3.33;100.00
51289;BME280;37372;52.294;5.152;2022-12-15T08:50:55;100916.06;;;-3.15;100.00
51289;BME280;37372;52.294;5.152;2022-12-15T08:53:20;100920.72;;;-2.98;100.00
51289;BME280;37372;52.294;5.152;2022-12-15T08:55:46;100933.50;;;-2.85;100.00
51289;BME280;37372;52.294;5.152;2022-12-15T08:58:11;100934.16;;;-2.62;100.00
51289;BME280;37372;52.294;5.152;2022-12-15T09:00:37;100936.41;;;-2.47;100.00
51289;BME280;37372;52.294;5.152;2022-12-15T09:03:02;100932.19;;;-2.35;100.00
51289;BME280;37372;52.294;5.152;2022-12-15T09:05:27;100946.34;;;-2.07;100.00
51289;BME280;37372;52.294;5.152;2022-12-15T09:07:56;100942.59;;;-1.94;100.00
51289;BME280;37372;52.294;5.152;2022-12-15T09:10:23;100944.59;;;-2.03;100.00
51289;BME280;37372;52.294;5.152;2022-12-15T09:12:49;100934.84;;;-1.92;100.00
51289;BME280;37372;52.294;5.152;2022-12-15T09:15:15;100944.84;;;-1.87;100.00
51289;BME280;37372;52.294;5.152;2022-12-15T09:17:41;100946.81;;;-1.97;100.00
51289;BME280;37372;52.294;5.152;2022-12-15T09:20:06;100954.41;;;-1.93;100.00
51289;BME280;37372;52.294;5.152;2022-12-15T09:22:33;100943.59;;;-2.07;100.00
51289;BME280;37372;52.294;5.152;2022-12-15T09:24:58;100933.75;;;-2.17;100.00
51289;BME280;37372;52.294;5.152;2022-12-15T09:27:23;100940.09;;;-2.25;100.00
51289;BME280;37372;52.294;5.152;2022-12-15T09:29:49;100948.66;;;-2.27;100.00
51289;BME280;37372;52.294;5.152;2022-12-15T09:32:14;100948.34;;;-2.25;100.00
51289;BME280;37372;52.294;5.152;2022-12-15T09:34:40;100953.03;;;-2.26;100.00
51289;BME280;37372;52.294;5.152;2022-12-15T09:37:05;100944.44;;;-2.15;100.00
51289;BME280;37372;52.294;5.152;2022-12-15T09:39:31;100942.16;;;-2.05;100.00
51289;BME280;37372;52.294;5.152;2022-12-15T09:42:00;100947.44;;;-1.91;100.00
51289;BME280;37372;52.294;5.152;2022-12-15T09:44:27;100948.03;;;-1.77;100.00
51289;BME280;37372;52.294;5.152;2022-12-15T09:47:27;100952.69;;;-1.68;100.00
51289;BME280;37372;52.294;5.152;2022-12-15T09:50:02;100951.50;;;-1.50;100.00
51289;BME280;37372;52.294;5.152;2022-12-15T09:52:34;100960.75;;;-1.25;100.00
51289;BME280;37372;52.294;5.152;2022-12-15T09:55:16;100960.28;;;-1.27;100.00
51289;BME280;37372;52.294;5.152;2022-12-15T09:57:47;100965.16;;;-1.03;100.00
51289;BME280;37372;52.294;5.152;2022-12-15T10:00:22;100961.94;;;-1.05;100.00
51289;BME280;37372;52.294;5.152;2022-12-15T10:06:01;100960.06;;;-0.92;100.00
51289;BME280;37372;52.294;5.152;2022-12-15T10:08:32;100970.78;;;-0.99;100.00
51289;BME280;37372;52.294;5.152;2022-12-15T10:11:01;100968.09;;;-1.08;100.00
51289;BME280;37372;52.294;5.152;2022-12-15T10:13:37;100969.50;;;-1.02;100.00
51289;BME280;37372;52.294;5.152;2022-12-15T10:16:14;100970.94;;;-0.96;100.00
51289;BME280;37372;52.294;5.152;2022-12-15T10:18:52;100968.31;;;-0.92;100.00
51289;BME280;37372;52.294;5.152;2022-12-15T10:21:20;100970.69;;;-0.82;100.00
51289;BME280;37372;52.294;5.152;2022-12-15T10:23:47;100978.75;;;-0.77;100.00
51289;BME280;37372;52.294;5.152;2022-12-15T10:31:51;100972.50;;;-0.65;100.00
51289;BME280;37372;52.294;5.152;2022-12-15T10:34:29;100971.31;;;-0.76;100.00
51289;BME280;37372;52.294;5.152;2022-12-15T10:36:56;100972.16;;;-0.84;100.00
51289;BME280;37372;52.294;5.152;2022-12-15T10:39:23;100971.56;;;-0.90;100.00
51289;BME280;37372;52.294;5.152;2022-12-15T10:42:17;100974.19;;;-0.94;100.00
51289;BME280;37372;52.294;5.152;2022-12-15T10:44:47;100967.31;;;-0.88;100.00
51289;BME280;37372;52.294;5.152;2022-12-15T10:47:24;100967.59;;;-0.80;100.00
51289;BME280;37372;52.294;5.152;2022-12-15T10:49:53;100965.81;;;-0.76;100.00
51289;BME280;37372;52.294;5.152;2022-12-15T10:52:25;100960.50;;;-0.81;100.00
51289;BME280;37372;52.294;5.152;2022-12-15T10:54:53;100971.50;;;-0.81;100.00
51289;BME280;37372;52.294;5.152;2022-12-15T10:57:26;100963.69;;;-0.79;100.00
51289;BME280;37372;52.294;5.152;2022-12-15T10:59:53;100962.28;;;-0.85;100.00
51289;BME280;37372;52.294;5.152;2022-12-15T11:05:14;100964.19;;;-0.77;100.00
51289;BME280;37372;52.294;5.152;2022-12-15T11:07:47;100953.50;;;-0.79;100.00
51289;BME280;37372;52.294;5.152;2022-12-15T11:10:26;100948.25;;;-0.72;100.00
51289;BME280;37372;52.294;5.152;2022-12-15T11:17:50;100954.91;;;-0.52;100.00
51289;BME280;37372;52.294;5.152;2022-12-15T11:20:21;100956.31;;;-0.46;100.00
51289;BME280;37372;52.294;5.152;2022-12-15T11:22:56;100959.78;;;-0.36;100.00
51289;BME280;37372;52.294;5.152;2022-12-15T11:27:53;100953.59;;;-0.33;100.00
51289;BME280;37372;52.294;5.152;2022-12-15T11:30:21;100964.41;;;-0.28;100.00
51289;BME280;37372;52.294;5.152;2022-12-15T11:32:51;100955.38;;;-0.16;100.00
51289;BME280;37372;52.294;5.152;2022-12-15T11:40:42;100961.78;;;-0.25;100.00
51289;BME280;37372;52.294;5.152;2022-12-15T11:48:59;100955.59;;;-0.22;100.00
51289;BME280;37372;52.294;5.152;2022-12-15T11:51:35;100952.94;;;-0.18;100.00
51289;BME280;37372;52.294;5.152;2022-12-15T11:54:19;100956.41;;;-0.21;100.00
51289;BME280;37372;52.294;5.152;2022-12-15T12:02:26;100959.31;;;-0.05;100.00
51289;BME280;37372;52.294;5.152;2022-12-15T12:05:20;100964.16;;;-0.02;100.00
51289;BME280;37372;52.294;5.152;2022-12-15T12:07:51;100960.94;;;-0.04;100.00
51289;BME280;37372;52.294;5.152;2022-12-15T12:13:40;100970.28;;;0.04;100.00
51289;BME280;37372;52.294;5.152;2022-12-15T12:19:04;100952.94;;;0.15;100.00
51289;BME280;37372;52.294;5.152;2022-12-15T12:21:37;100944.31;;;0.17;100.00
51289;BME280;37372;52.294;5.152;2022-12-15T12:24:23;100936.53;;;0.31;100.00
51289;BME280;37372;52.294;5.152;2022-12-15T12:26:58;100933.78;;;0.31;100.00
51289;BME280;37372;52.294;5.152;2022-12-15T12:29:37;100936.06;;;0.29;100.00
51289;BME280;37372;52.294;5.152;2022-12-15T12:34:41;100929.53;;;0.46;100.00
51289;BME280;37372;52.294;5.152;2022-12-15T12:37:35;100913.78;;;0.47;100.00
51289;BME280;37372;52.294;5.152;2022-12-15T12:40:24;100914.34;;;0.52;100.00
51289;BME280;37372;52.294;5.152;2022-12-15T12:42:54;100909.28;;;0.54;100.00
51289;BME280;37372;52.294;5.152;2022-12-15T12:48:29;100912.28;;;0.49;100.00
51289;BME280;37372;52.294;5.152;2022-12-15T12:51:12;100908.44;;;0.66;100.00
51289;BME280;37372;52.294;5.152;2022-12-15T12:53:38;100907.53;;;0.74;100.00
51289;BME280;37372;52.294;5.152;2022-12-15T12:56:03;100902.25;;;0.57;100.00
51289;BME280;37372;52.294;5.152;2022-12-15T13:03:39;100896.75;;;0.45;100.00
51289;BME280;37372;52.294;5.152;2022-12-15T13:11:56;100898.56;;;0.40;100.00
51289;BME280;37372;52.294;5.152;2022-12-15T13:14:34;100894.22;;;0.52;100.00
51289;BME280;37372;52.294;5.152;2022-12-15T13:17:28;100898.09;;;0.51;100.00
51289;BME280;37372;52.294;5.152;2022-12-15T13:22:34;100890.06;;;0.58;100.00
51289;BME280;37372;52.294;5.152;2022-12-15T13:25:01;100887.19;;;0.54;100.00
51289;BME280;37372;52.294;5.152;2022-12-15T13:27:37;100883.19;;;0.52;100.00
51289;BME280;37372;52.294;5.152;2022-12-15T13:32:41;100886.72;;;0.64;100.00
51289;BME280;37372;52.294;5.152;2022-12-15T13:37:48;100881.09;;;0.61;100.00
51289;BME280;37372;52.294;5.152;2022-12-15T13:40:49;100877.19;;;0.62;100.00
51289;BME280;37372;52.294;5.152;2022-12-15T13:43:40;100885.22;;;0.67;100.00
51289;BME280;37372;52.294;5.152;2022-12-15T13:46:23;100882.16;;;0.56;100.00
51289;BME280;37372;52.294;5.152;2022-12-15T13:48:52;100877.88;;;0.47;100.00
51289;BME280;37372;52.294;5.152;2022-12-15T13:51:33;100887.19;;;0.42;100.00
51289;BME280;37372;52.294;5.152;2022-12-15T13:54:03;100881.78;;;0.46;100.00
51289;BME280;37372;52.294;5.152;2022-12-15T13:59:43;100880.41;;;0.39;100.00
51289;BME280;37372;52.294;5.152;2022-12-15T14:02:28;100870.19;;;0.40;100.00
51289;BME280;37372;52.294;5.152;2022-12-15T14:08:01;100860.16;;;0.48;100.00
51289;BME280;37372;52.294;5.152;2022-12-15T14:10:50;100864.50;;;0.61;100.00
51289;BME280;37372;52.294;5.152;2022-12-15T14:13:28;100860.84;;;0.57;100.00
51289;BME280;37372;52.294;5.152;2022-12-15T14:15:57;100865.91;;;0.55;100.00
51289;BME280;37372;52.294;5.152;2022-12-15T14:20:57;100859.94;;;0.53;100.00
51289;BME280;37372;52.294;5.152;2022-12-15T14:23:26;100857.78;;;0.46;100.00
51289;BME280;37372;52.294;5.152;2022-12-15T14:25:54;100864.66;;;0.40;100.00
51289;BME280;37372;52.294;5.152;2022-12-15T14:28:28;100858.09;;;0.32;100.00
51289;BME280;37372;52.294;5.152;2022-12-15T14:30:57;100854.22;;;0.33;100.00
51289;BME280;37372;52.294;5.152;2022-12-15T14:33:24;100855.00;;;0.34;100.00
51289;BME280;37372;52.294;5.152;2022-12-15T14:35:53;100854.44;;;0.28;100.00